createdAt,value
2022-12-04T00:00:39.126Z,56.09
2022-12-04T00:01:39.092Z,49.24
2022-12-04T00:02:39.109Z,46.98
2022-12-04T00:03:39.079Z,44.01
2022-12-04T00:04:39.201Z,46.79
2022-12-04T00:05:39.099Z,54.40
2022-12-04T00:06:39.056Z,51.99
2022-12-04T00:07:39.094Z,51.21
2022-12-04T00:08:39.064Z,57.51
2022-12-04T00:09:39.035Z,51.74
2022-12-04T00:10:39.050Z,50.13
2022-12-04T00:11:39.019Z,48.63
2022-12-04T00:12:39.010Z,53.66
2022-12-04T00:13:39.017Z,52.41
2022-12-04T00:15:08.066Z,47.90
2022-12-04T00:15:41.019Z,52.60
2022-12-04T00:16:39.092Z,54.41
2022-12-04T00:17:38.997Z,60.11
2022-12-04T00:18:39.014Z,48.38
2022-12-04T00:19:38.955Z,53.55
2022-12-04T00:20:38.974Z,49.71
2022-12-04T00:21:38.942Z,50.55
2022-12-04T00:22:38.938Z,51.65
2022-12-04T00:23:38.933Z,48.72
2022-12-04T00:24:38.928Z,51.40
2022-12-04T00:25:41.332Z,48.61
2022-12-04T00:26:39.917Z,53.78
2022-12-04T00:27:38.910Z,53.10
2022-12-04T00:28:38.894Z,50.44
2022-12-04T00:29:38.890Z,50.26
2022-12-04T00:30:38.910Z,45.25
2022-12-04T00:31:38.953Z,51.71
2022-12-04T00:32:38.877Z,54.20
2022-12-04T00:33:38.869Z,51.18
2022-12-04T00:34:38.847Z,45.84
2022-12-04T00:35:38.870Z,48.38
2022-12-04T00:36:38.837Z,47.74
2022-12-04T00:37:38.880Z,51.92
2022-12-04T00:38:38.818Z,47.76
2022-12-04T00:39:38.809Z,54.18
2022-12-04T00:41:10.737Z,59.18
2022-12-04T00:41:38.797Z,60.84
2022-12-04T00:42:38.793Z,60.82
2022-12-04T00:43:38.782Z,61.48
2022-12-04T00:44:38.780Z,60.82
2022-12-04T00:45:38.825Z,60.41
2022-12-04T00:46:38.772Z,60.47
2022-12-04T00:47:38.756Z,63.03
2022-12-04T00:48:38.750Z,59.62
2022-12-04T00:49:38.746Z,59.74
2022-12-04T00:50:38.758Z,59.33
2022-12-04T00:51:38.753Z,63.93
2022-12-04T00:52:38.724Z,60.90
2022-12-04T00:53:38.718Z,60.21
2022-12-04T00:54:38.700Z,60.88
2022-12-04T00:55:39.731Z,60.28
2022-12-04T00:56:38.702Z,62.20
2022-12-04T00:57:38.689Z,61.09
2022-12-04T00:58:38.680Z,60.56
2022-12-04T00:59:38.674Z,61.09
2022-12-04T01:00:38.768Z,61.15
2022-12-04T01:01:38.739Z,60.93
2022-12-04T01:02:38.712Z,60.86
2022-12-04T01:03:38.646Z,61.34
2022-12-04T01:04:38.640Z,61.88
2022-12-04T01:05:38.662Z,61.09
2022-12-04T01:06:38.618Z,60.98
2022-12-04T01:07:38.628Z,61.09
2022-12-04T01:08:38.607Z,60.95
2022-12-04T01:09:38.600Z,60.90
2022-12-04T01:10:38.635Z,60.95
2022-12-04T01:11:38.585Z,60.99
2022-12-04T01:12:38.605Z,61.45
2022-12-04T01:13:38.575Z,60.95
2022-12-04T01:14:38.558Z,60.83
2022-12-04T01:15:38.581Z,60.95
2022-12-04T01:16:38.675Z,61.17
2022-12-04T01:17:38.547Z,61.77
2022-12-04T01:18:38.541Z,60.90
2022-12-04T01:19:38.536Z,60.89
2022-12-04T01:20:38.548Z,60.83
2022-12-04T01:21:38.512Z,60.92
2022-12-04T01:22:38.504Z,60.83
2022-12-04T01:23:38.500Z,63.07
2022-12-04T01:24:38.488Z,60.90
2022-12-04T01:25:38.514Z,60.91
2022-12-04T01:26:38.471Z,60.84
2022-12-04T01:27:38.469Z,61.34
2022-12-04T01:28:38.466Z,63.21
2022-12-04T01:29:38.449Z,60.95
2022-12-04T01:30:38.479Z,61.12
2022-12-04T01:31:38.535Z,61.93
2022-12-04T01:32:38.431Z,60.99
2022-12-04T01:33:38.418Z,61.73
2022-12-04T01:34:38.414Z,61.05
2022-12-04T01:35:38.450Z,61.26
2022-12-04T01:36:38.400Z,61.00
2022-12-04T01:37:38.393Z,60.99
2022-12-04T01:38:38.381Z,60.98
2022-12-04T01:39:38.383Z,60.91
2022-12-04T01:40:38.370Z,61.13
2022-12-04T01:41:38.388Z,63.65
2022-12-04T01:42:39.353Z,61.89
2022-12-04T01:43:38.350Z,61.72
2022-12-04T01:44:38.339Z,60.94
2022-12-04T01:45:38.417Z,61.18
2022-12-04T01:46:38.348Z,60.86
2022-12-04T01:47:38.324Z,60.80
2022-12-04T01:48:38.307Z,63.22
2022-12-04T01:49:38.299Z,64.00
2022-12-04T01:50:38.300Z,60.82
2022-12-04T01:51:38.324Z,60.95
2022-12-04T01:52:38.280Z,63.63
2022-12-04T01:53:38.272Z,61.30
2022-12-04T01:54:38.271Z,60.81
2022-12-04T01:55:38.268Z,60.69
2022-12-04T01:56:38.276Z,60.13
2022-12-04T01:57:38.241Z,59.33
2022-12-04T01:58:38.233Z,59.02
2022-12-04T01:59:38.255Z,51.93
2022-12-04T02:00:38.220Z,54.53
2022-12-04T02:01:38.260Z,52.20
2022-12-04T02:02:38.257Z,44.51
2022-12-04T02:03:38.203Z,45.02
2022-12-04T02:04:38.215Z,58.50
2022-12-04T02:05:38.188Z,46.01
2022-12-04T02:06:38.177Z,49.65
2022-12-04T02:07:38.228Z,45.26
2022-12-04T02:08:38.171Z,43.95
2022-12-04T02:09:38.190Z,46.46
2022-12-04T02:10:38.159Z,46.66
2022-12-04T02:11:38.140Z,50.31
2022-12-04T02:12:38.128Z,54.35
2022-12-04T02:13:38.129Z,53.54
2022-12-04T02:14:38.161Z,47.94
2022-12-04T02:15:38.111Z,49.29
2022-12-04T02:16:38.163Z,60.03
2022-12-04T02:17:38.100Z,49.57
2022-12-04T02:18:38.087Z,48.43
2022-12-04T02:19:38.111Z,50.89
2022-12-04T02:20:38.085Z,53.50
2022-12-04T02:21:38.070Z,50.04
2022-12-04T02:22:38.067Z,54.19
2022-12-04T02:23:38.058Z,50.34
2022-12-04T02:24:38.076Z,48.79
2022-12-04T02:25:38.038Z,51.16
2022-12-04T02:26:38.037Z,53.49
2022-12-04T02:27:38.026Z,46.17
2022-12-04T02:28:38.027Z,47.78
2022-12-04T02:29:38.035Z,52.00
2022-12-04T02:30:38.084Z,53.68
2022-12-04T02:31:37.989Z,51.22
2022-12-04T02:32:37.988Z,45.96
2022-12-04T02:33:37.984Z,45.54
2022-12-04T02:34:37.997Z,51.34
2022-12-04T02:35:37.966Z,48.23
2022-12-04T02:36:37.957Z,47.58
2022-12-04T02:37:37.950Z,49.83
2022-12-04T02:38:37.964Z,52.05
2022-12-04T02:39:37.960Z,50.33
2022-12-04T02:40:37.954Z,49.50
2022-12-04T02:41:37.917Z,51.63
2022-12-04T02:42:37.920Z,45.76
2022-12-04T02:43:37.908Z,46.22
2022-12-04T02:44:37.923Z,54.83
2022-12-04T02:45:37.953Z,43.97
2022-12-04T02:46:37.874Z,44.10
2022-12-04T02:47:37.875Z,46.41
2022-12-04T02:48:37.866Z,49.27
2022-12-04T02:49:37.888Z,45.25
2022-12-04T02:50:37.850Z,47.50
2022-12-04T02:51:37.854Z,46.89
2022-12-04T02:52:37.833Z,54.67
2022-12-04T02:53:37.835Z,53.78
2022-12-04T02:54:37.846Z,51.96
2022-12-04T02:55:37.829Z,48.65
2022-12-04T02:56:37.815Z,57.45
2022-12-04T02:57:37.800Z,55.23
2022-12-04T02:58:37.802Z,53.00
2022-12-04T02:59:37.815Z,52.97
2022-12-04T03:00:37.774Z,48.63
2022-12-04T03:01:37.820Z,49.34
2022-12-04T03:02:37.816Z,54.46
2022-12-04T03:03:37.754Z,46.71
2022-12-04T03:04:37.771Z,45.19
2022-12-04T03:05:37.740Z,53.69
2022-12-04T03:06:37.731Z,55.60
2022-12-04T03:07:37.785Z,46.89
2022-12-04T03:08:37.713Z,48.65
2022-12-04T03:09:37.729Z,45.20
2022-12-04T03:10:37.703Z,45.19
2022-12-04T03:11:37.698Z,50.97
2022-12-04T03:12:37.682Z,53.53
2022-12-04T03:13:37.679Z,47.23
2022-12-04T03:14:37.694Z,52.40
2022-12-04T03:15:37.659Z,46.21
2022-12-04T03:16:37.724Z,57.96
2022-12-04T03:17:37.637Z,50.20
2022-12-04T03:18:37.635Z,48.80
2022-12-04T03:19:37.660Z,50.71
2022-12-04T03:20:37.628Z,47.64
2022-12-04T03:21:37.614Z,48.04
2022-12-04T03:22:37.599Z,45.55
2022-12-04T03:23:37.597Z,42.66
2022-12-04T03:24:37.624Z,51.07
2022-12-04T03:25:37.589Z,55.91
2022-12-04T03:26:37.579Z,51.52
2022-12-04T03:27:37.575Z,50.56
2022-12-04T03:28:37.659Z,48.33
2022-12-04T03:29:37.577Z,47.43
2022-12-04T03:30:37.642Z,48.29
2022-12-04T03:31:37.550Z,48.21
2022-12-04T03:32:37.535Z,52.49
2022-12-04T03:33:37.528Z,46.37
2022-12-04T03:34:37.550Z,46.55
2022-12-04T03:35:37.511Z,43.10
2022-12-04T03:36:37.511Z,48.92
2022-12-04T03:37:37.496Z,60.88
2022-12-04T03:38:37.488Z,54.21
2022-12-04T03:39:37.511Z,46.54
2022-12-04T03:40:37.491Z,42.72
2022-12-04T03:41:37.468Z,42.73
2022-12-04T03:42:37.455Z,44.50
2022-12-04T03:43:37.450Z,50.99
2022-12-04T03:44:37.437Z,55.83
2022-12-04T03:45:37.602Z,45.60
2022-12-04T03:46:37.492Z,42.51
2022-12-04T03:47:37.420Z,46.94
2022-12-04T03:48:37.410Z,48.37
2022-12-04T03:49:37.402Z,49.17
2022-12-04T03:50:37.421Z,53.62
2022-12-04T03:51:37.382Z,45.46
2022-12-04T03:52:37.385Z,43.59
2022-12-04T03:53:37.371Z,42.60
2022-12-04T03:54:37.367Z,43.69
2022-12-04T03:55:37.387Z,49.36
2022-12-04T03:56:37.349Z,49.53
2022-12-04T03:57:37.343Z,58.93
2022-12-04T03:58:37.343Z,57.66
2022-12-04T03:59:37.327Z,47.11
2022-12-04T04:00:37.346Z,49.32
2022-12-04T04:01:37.351Z,47.74
2022-12-04T04:02:37.367Z,44.33
2022-12-04T04:03:37.298Z,52.73
2022-12-04T04:04:37.289Z,43.65
2022-12-04T04:05:37.308Z,48.04
2022-12-04T04:06:37.277Z,48.30
2022-12-04T04:07:37.318Z,59.14
2022-12-04T04:08:37.257Z,44.59
2022-12-04T04:09:37.252Z,49.16
2022-12-04T04:10:37.268Z,43.46
2022-12-04T04:11:37.232Z,49.52
2022-12-04T04:12:37.241Z,50.67
2022-12-04T04:13:37.224Z,48.52
2022-12-04T04:14:37.217Z,46.83
2022-12-04T04:15:37.400Z,42.34
2022-12-04T04:16:37.213Z,42.97
2022-12-04T04:17:38.905Z,48.77
2022-12-04T04:18:38.178Z,44.18
2022-12-04T04:19:38.179Z,45.78
2022-12-04T04:20:37.204Z,44.82
2022-12-04T04:21:37.159Z,44.73
2022-12-04T04:22:37.170Z,52.74
2022-12-04T04:23:37.150Z,43.01
2022-12-04T04:24:37.147Z,45.54
2022-12-04T04:25:37.189Z,49.55
2022-12-04T04:26:37.131Z,62.16
2022-12-04T04:27:37.121Z,52.29
2022-12-04T04:28:37.115Z,50.70
2022-12-04T04:29:37.117Z,47.38
2022-12-04T04:30:37.121Z,58.24
2022-12-04T04:31:37.161Z,52.23
2022-12-04T04:32:37.081Z,49.16
2022-12-04T04:33:37.076Z,55.11
2022-12-04T04:34:37.066Z,52.02
2022-12-04T04:35:37.075Z,49.51
2022-12-04T04:36:37.097Z,54.89
2022-12-04T04:37:37.042Z,54.20
2022-12-04T04:38:37.031Z,49.59
2022-12-04T04:39:37.024Z,58.87
2022-12-04T04:40:37.016Z,57.28
2022-12-04T04:41:37.056Z,59.05
2022-12-04T04:42:37.007Z,59.25
2022-12-04T04:43:37.000Z,60.13
2022-12-04T04:44:36.983Z,61.01
2022-12-04T04:45:36.975Z,61.11
2022-12-04T04:46:37.051Z,60.81
2022-12-04T04:47:36.964Z,60.87
2022-12-04T04:48:36.952Z,60.48
2022-12-04T04:49:36.952Z,60.13
2022-12-04T04:50:36.936Z,63.26
2022-12-04T04:51:36.975Z,60.09
2022-12-04T04:52:36.926Z,59.83
2022-12-04T04:53:36.926Z,60.39
2022-12-04T04:54:36.909Z,54.32
2022-12-04T04:55:36.903Z,44.31
2022-12-04T04:56:36.921Z,48.03
2022-12-04T04:57:36.890Z,49.00
2022-12-04T04:58:36.877Z,50.59
2022-12-04T04:59:36.872Z,45.60
2022-12-04T05:00:36.884Z,45.65
2022-12-04T05:01:36.930Z,42.49
2022-12-04T05:02:36.905Z,45.28
2022-12-04T05:03:36.848Z,43.83
2022-12-04T05:04:36.838Z,50.41
2022-12-04T05:05:36.836Z,52.34
2022-12-04T05:06:36.851Z,45.29
2022-12-04T05:07:36.837Z,46.55
2022-12-04T05:08:36.813Z,43.73
2022-12-04T05:09:41.079Z,51.61
2022-12-04T05:10:37.792Z,44.02
2022-12-04T05:11:36.810Z,52.66
2022-12-04T05:12:36.780Z,60.77
2022-12-04T05:13:36.779Z,48.62
2022-12-04T05:14:36.761Z,48.57
2022-12-04T05:15:36.792Z,58.69
2022-12-04T05:16:36.818Z,49.29
2022-12-04T05:17:36.735Z,43.51
2022-12-04T05:18:36.731Z,51.04
2022-12-04T05:19:36.725Z,50.17
2022-12-04T05:20:36.715Z,42.33
2022-12-04T05:21:36.736Z,43.22
2022-12-04T05:22:36.708Z,48.79
2022-12-04T05:23:36.691Z,44.64
2022-12-04T05:24:36.688Z,41.89
2022-12-04T05:25:36.687Z,49.40
2022-12-04T05:26:36.704Z,44.30
2022-12-04T05:27:36.656Z,51.88
2022-12-04T05:28:36.654Z,46.47
2022-12-04T05:29:36.650Z,45.09
2022-12-04T05:30:36.636Z,49.11
2022-12-04T05:31:36.713Z,50.24
2022-12-04T05:32:36.639Z,51.82
2022-12-04T05:33:36.621Z,50.15
2022-12-04T05:34:36.611Z,47.78
2022-12-04T05:35:36.603Z,42.65
2022-12-04T05:36:36.632Z,46.90
2022-12-04T05:37:36.591Z,44.13
2022-12-04T05:38:36.579Z,52.20
2022-12-04T05:39:36.576Z,52.06
2022-12-04T05:40:36.576Z,49.65
2022-12-04T05:41:36.562Z,46.93
2022-12-04T05:42:36.581Z,54.79
2022-12-04T05:43:36.545Z,62.66
2022-12-04T05:44:36.533Z,53.02
2022-12-04T05:45:36.531Z,46.57
2022-12-04T05:46:36.594Z,48.08
2022-12-04T05:47:36.537Z,52.64
2022-12-04T05:48:36.504Z,47.60
2022-12-04T05:49:36.501Z,48.80
2022-12-04T05:50:36.488Z,48.03
2022-12-04T05:51:36.483Z,46.59
2022-12-04T05:52:36.506Z,45.15
2022-12-04T05:53:36.471Z,58.03
2022-12-04T05:54:36.459Z,46.64
2022-12-04T05:55:36.455Z,46.53
2022-12-04T05:56:36.444Z,52.26
2022-12-04T05:57:36.467Z,46.59
2022-12-04T05:58:36.436Z,45.66
2022-12-04T05:59:36.422Z,43.79
2022-12-04T06:00:36.415Z,41.75
2022-12-04T06:01:36.499Z,49.89
2022-12-04T06:02:36.556Z,54.91
2022-12-04T06:03:36.483Z,56.34
2022-12-04T06:04:36.398Z,49.02
2022-12-04T06:05:36.379Z,47.70
2022-12-04T06:06:36.367Z,52.89
2022-12-04T06:07:36.422Z,43.27
2022-12-04T06:08:36.359Z,46.46
2022-12-04T06:09:36.355Z,52.59
2022-12-04T06:10:36.346Z,46.40
2022-12-04T06:11:36.338Z,45.78
2022-12-04T06:12:36.360Z,51.61
2022-12-04T06:13:36.322Z,59.67
2022-12-04T06:14:39.451Z,44.47
2022-12-04T06:15:37.315Z,48.61
2022-12-04T06:16:36.416Z,51.74
2022-12-04T06:17:36.340Z,54.28
2022-12-04T06:18:36.283Z,47.16
2022-12-04T06:19:36.271Z,42.53
2022-12-04T06:20:36.353Z,47.18
2022-12-04T06:21:36.265Z,42.29
2022-12-04T06:22:36.276Z,49.65
2022-12-04T06:23:36.246Z,55.30
2022-12-04T06:24:36.235Z,52.26
2022-12-04T06:25:36.234Z,55.12
2022-12-04T06:26:36.225Z,50.74
2022-12-04T06:27:36.245Z,48.76
2022-12-04T06:28:36.212Z,47.67
2022-12-04T06:29:36.200Z,42.18
2022-12-04T06:30:36.188Z,47.57
2022-12-04T06:31:36.246Z,51.02
2022-12-04T06:32:36.200Z,48.92
2022-12-04T06:33:36.166Z,45.34
2022-12-04T06:34:36.160Z,49.56
2022-12-04T06:35:36.150Z,51.09
2022-12-04T06:36:36.148Z,49.43
2022-12-04T06:37:36.138Z,50.24
2022-12-04T06:38:36.152Z,51.18
2022-12-04T06:39:36.121Z,54.70
2022-12-04T06:41:10.156Z,62.41
2022-12-04T06:41:36.104Z,59.93
2022-12-04T06:42:36.103Z,59.34
2022-12-04T06:43:36.114Z,64.82
2022-12-04T06:44:36.085Z,61.61
2022-12-04T06:45:36.203Z,60.18
2022-12-04T06:46:36.061Z,59.97
2022-12-04T06:47:36.064Z,63.07
2022-12-04T06:48:36.081Z,59.81
2022-12-04T06:49:36.040Z,60.67
2022-12-04T06:50:36.030Z,60.23
2022-12-04T06:51:37.034Z,59.89
2022-12-04T06:52:36.024Z,60.40
2022-12-04T06:53:36.049Z,59.48
2022-12-04T06:54:36.011Z,59.73
2022-12-04T06:55:36.003Z,62.07
2022-12-04T06:56:36.001Z,60.25
2022-12-04T06:57:35.985Z,59.23
2022-12-04T06:58:36.009Z,47.03
2022-12-04T06:59:35.976Z,48.90
2022-12-04T07:00:36.011Z,56.97
2022-12-04T07:01:36.047Z,46.55
2022-12-04T07:02:36.049Z,47.72
2022-12-04T07:03:35.960Z,52.51
2022-12-04T07:04:35.931Z,55.48
2022-12-04T07:05:35.926Z,54.88
2022-12-04T07:06:35.921Z,50.21
2022-12-04T07:07:35.940Z,56.11
2022-12-04T07:08:36.928Z,50.82
2022-12-04T07:09:35.894Z,49.86
2022-12-04T07:10:35.884Z,51.59
2022-12-04T07:11:35.882Z,50.80
2022-12-04T07:12:35.871Z,50.52
2022-12-04T07:13:35.888Z,48.90
2022-12-04T07:14:35.855Z,52.11
2022-12-04T07:15:35.861Z,51.27
2022-12-04T07:16:40.775Z,45.65
2022-12-04T07:17:37.827Z,53.79
2022-12-04T07:18:35.850Z,49.39
2022-12-04T07:19:35.818Z,41.29
2022-12-04T07:20:35.817Z,51.59
2022-12-04T07:21:35.808Z,55.49
2022-12-04T07:22:35.791Z,50.31
2022-12-04T07:23:35.823Z,51.36
2022-12-04T07:24:35.785Z,51.98
2022-12-04T07:25:35.770Z,50.27
2022-12-04T07:26:35.763Z,49.34
2022-12-04T07:27:35.754Z,51.28
2022-12-04T07:28:35.780Z,56.02
2022-12-04T07:29:35.740Z,47.45
2022-12-04T07:30:35.734Z,47.56
2022-12-04T07:31:35.786Z,48.41
2022-12-04T07:32:35.719Z,54.99
2022-12-04T07:33:35.734Z,49.51
2022-12-04T07:34:35.699Z,46.47
2022-12-04T07:35:35.694Z,52.09
2022-12-04T07:36:35.683Z,49.61
2022-12-04T07:37:35.680Z,53.21
2022-12-04T07:38:35.706Z,49.11
2022-12-04T07:39:35.662Z,55.51
2022-12-04T07:40:35.658Z,58.76
2022-12-04T07:41:35.683Z,61.04
2022-12-04T07:42:35.652Z,62.17
2022-12-04T07:43:35.677Z,60.25
2022-12-04T07:44:35.632Z,60.09
2022-12-04T07:45:35.659Z,60.58
2022-12-04T07:46:35.680Z,60.27
2022-12-04T07:47:35.607Z,60.42
2022-12-04T07:48:35.628Z,60.93
2022-12-04T07:49:35.588Z,59.92
2022-12-04T07:50:35.583Z,60.42
2022-12-04T07:51:35.583Z,60.82
2022-12-04T07:52:35.565Z,60.54
2022-12-04T07:53:35.558Z,60.77
2022-12-04T07:54:35.583Z,60.27
2022-12-04T07:55:35.549Z,57.39
2022-12-04T07:56:35.534Z,56.50
2022-12-04T07:57:35.524Z,49.35
2022-12-04T07:58:35.525Z,55.14
2022-12-04T07:59:35.538Z,54.03
2022-12-04T08:00:35.505Z,52.08
2022-12-04T08:01:35.560Z,61.55
2022-12-04T08:02:35.501Z,51.51
2022-12-04T08:03:35.484Z,50.79
2022-12-04T08:04:35.555Z,47.87
2022-12-04T08:05:35.481Z,55.65
2022-12-04T08:06:35.463Z,62.89
2022-12-04T08:07:35.506Z,55.41
2022-12-04T08:08:35.460Z,55.70
2022-12-04T08:09:35.530Z,60.36
2022-12-04T08:10:35.505Z,58.93
2022-12-04T08:11:35.416Z,55.20
2022-12-04T08:12:35.431Z,56.97
2022-12-04T08:13:35.510Z,52.79
2022-12-04T08:14:35.463Z,48.71
2022-12-04T08:15:35.396Z,52.65
2022-12-04T08:16:35.418Z,55.90
2022-12-04T08:17:35.441Z,54.87
2022-12-04T08:18:35.371Z,54.63
2022-12-04T08:19:35.383Z,54.18
2022-12-04T08:20:35.358Z,57.98
2022-12-04T08:21:35.341Z,53.31
2022-12-04T08:22:35.430Z,60.28
2022-12-04T08:23:35.333Z,58.65
2022-12-04T08:24:35.344Z,60.83
2022-12-04T08:25:35.309Z,52.74
2022-12-04T08:26:35.306Z,54.13
2022-12-04T08:27:35.292Z,58.59
2022-12-04T08:28:35.283Z,53.60
2022-12-04T08:29:35.318Z,53.78
2022-12-04T08:30:35.396Z,53.91
2022-12-04T08:31:35.392Z,57.56
2022-12-04T08:32:35.254Z,54.77
2022-12-04T08:33:35.251Z,54.92
2022-12-04T08:34:35.265Z,48.98
2022-12-04T08:35:35.236Z,59.77
2022-12-04T08:36:35.228Z,60.54
2022-12-04T08:37:35.233Z,60.84
2022-12-04T08:38:35.224Z,61.85
2022-12-04T08:39:35.229Z,61.35
2022-12-04T08:40:35.190Z,65.70
2022-12-04T08:41:35.189Z,62.33
2022-12-04T08:42:35.182Z,61.63
2022-12-04T08:43:35.175Z,61.30
2022-12-04T08:44:35.246Z,60.77
2022-12-04T08:45:35.161Z,60.63
2022-12-04T08:46:35.211Z,60.58
2022-12-04T08:47:35.151Z,61.25
2022-12-04T08:48:35.147Z,56.95
2022-12-04T08:49:35.166Z,57.45
2022-12-04T08:50:35.129Z,59.15
2022-12-04T08:51:35.121Z,55.64
2022-12-04T08:52:35.133Z,55.74
2022-12-04T08:53:35.113Z,57.95
2022-12-04T08:54:36.376Z,55.62
2022-12-04T08:55:36.085Z,57.84
2022-12-04T08:56:35.077Z,54.57
2022-12-04T08:57:35.073Z,50.00
2022-12-04T08:58:35.061Z,53.06
2022-12-04T08:59:35.082Z,51.31
2022-12-04T09:00:35.045Z,50.77
2022-12-04T09:01:35.118Z,55.42
2022-12-04T09:02:35.045Z,55.74
2022-12-04T09:03:35.022Z,54.69
2022-12-04T09:04:35.061Z,59.10
2022-12-04T09:05:36.006Z,57.10
2022-12-04T09:06:35.004Z,50.68
2022-12-04T09:07:35.050Z,53.67
2022-12-04T09:08:34.991Z,55.79
2022-12-04T09:09:35.002Z,58.53
2022-12-04T09:10:34.970Z,54.42
2022-12-04T09:11:34.966Z,57.89
2022-12-04T09:12:34.961Z,52.35
2022-12-04T09:13:34.986Z,56.69
2022-12-04T09:14:34.978Z,55.23
2022-12-04T09:15:35.000Z,59.63
2022-12-04T09:16:34.953Z,57.96
2022-12-04T09:17:34.917Z,58.29
2022-12-04T09:18:34.917Z,59.39
2022-12-04T09:19:34.933Z,59.84
2022-12-04T09:20:35.780Z,57.53
2022-12-04T09:21:34.896Z,56.53
2022-12-04T09:22:57.730Z,59.98
2022-12-04T09:23:36.878Z,55.28
2022-12-04T09:24:34.897Z,54.42
2022-12-04T09:25:34.865Z,56.61
2022-12-04T09:26:34.861Z,55.76
2022-12-04T09:27:34.851Z,51.27
2022-12-04T09:28:34.840Z,57.76
2022-12-04T09:29:34.832Z,56.76
2022-12-04T09:30:34.845Z,57.00
2022-12-04T09:31:34.875Z,56.17
2022-12-04T09:32:34.807Z,55.99
2022-12-04T09:33:34.804Z,54.91
2022-12-04T09:34:34.790Z,56.60
2022-12-04T09:35:34.817Z,54.06
2022-12-04T09:36:34.772Z,49.56
2022-12-04T09:37:34.773Z,59.15
2022-12-04T09:38:34.766Z,62.85
2022-12-04T09:39:34.754Z,55.04
2022-12-04T09:40:37.875Z,53.25
2022-12-04T09:41:35.791Z,56.39
2022-12-04T09:42:34.736Z,52.39
2022-12-04T09:43:34.728Z,57.94
2022-12-04T09:44:34.720Z,57.91
2022-12-04T09:45:34.736Z,52.49
2022-12-04T09:46:34.768Z,63.47
2022-12-04T09:47:34.707Z,52.85
2022-12-04T09:48:34.708Z,56.21
2022-12-04T09:49:34.724Z,60.01
2022-12-04T09:50:34.702Z,51.98
2022-12-04T09:51:34.674Z,55.20
2022-12-04T09:52:34.662Z,59.16
2022-12-04T09:53:34.648Z,55.38
2022-12-04T09:54:34.662Z,57.35
2022-12-04T09:55:34.668Z,56.77
2022-12-04T09:56:34.713Z,58.96
2022-12-04T09:57:34.628Z,53.79
2022-12-04T09:58:34.591Z,54.10
2022-12-04T09:59:35.606Z,64.36
2022-12-04T10:00:34.645Z,55.40
2022-12-04T10:01:34.584Z,57.61
2022-12-04T10:02:34.710Z,60.28
2022-12-04T10:03:34.668Z,57.24
2022-12-04T10:04:34.566Z,53.89
2022-12-04T10:05:34.593Z,57.24
2022-12-04T10:06:34.556Z,57.18
2022-12-04T10:07:34.573Z,56.63
2022-12-04T10:08:34.543Z,55.22
2022-12-04T10:09:34.541Z,58.52
2022-12-04T10:10:34.544Z,55.15
2022-12-04T10:11:34.517Z,55.82
2022-12-04T10:12:34.555Z,58.81
2022-12-04T10:13:34.508Z,56.93
2022-12-04T10:14:34.489Z,57.63
2022-12-04T10:15:34.613Z,56.64
2022-12-04T10:16:34.598Z,56.62
2022-12-04T10:17:34.472Z,60.11
2022-12-04T10:18:34.463Z,56.56
2022-12-04T10:19:34.456Z,54.61
2022-12-04T10:20:34.489Z,53.56
2022-12-04T10:21:34.447Z,57.74
2022-12-04T10:22:34.435Z,61.33
2022-12-04T10:23:34.418Z,59.77
2022-12-04T10:24:34.411Z,62.32
2022-12-04T10:25:34.410Z,61.97
2022-12-04T10:26:34.598Z,61.23
2022-12-04T10:27:34.389Z,61.56
2022-12-04T10:28:34.472Z,60.31
2022-12-04T10:29:34.379Z,60.90
2022-12-04T10:30:34.385Z,60.03
2022-12-04T10:31:34.443Z,62.86
2022-12-04T10:32:34.362Z,62.20
2022-12-04T10:33:34.347Z,61.02
2022-12-04T10:34:34.366Z,61.33
2022-12-04T10:35:34.331Z,60.46
2022-12-04T10:36:34.354Z,62.62
2022-12-04T10:37:34.319Z,61.12
2022-12-04T10:38:34.308Z,62.18
2022-12-04T10:39:34.297Z,61.13
2022-12-04T10:40:34.295Z,62.75
2022-12-04T10:41:34.321Z,61.21
2022-12-04T10:42:34.289Z,61.43
2022-12-04T10:43:34.277Z,61.19
2022-12-04T10:44:34.273Z,60.80
2022-12-04T10:45:34.260Z,60.22
2022-12-04T10:46:34.450Z,61.34
2022-12-04T10:47:34.256Z,60.48
2022-12-04T10:48:34.273Z,60.57
2022-12-04T10:49:34.225Z,61.89
2022-12-04T10:50:34.221Z,62.61
2022-12-04T10:51:34.260Z,63.50
2022-12-04T10:52:34.227Z,60.91
2022-12-04T10:53:34.198Z,61.11
2022-12-04T10:54:34.203Z,60.53
2022-12-04T10:55:34.198Z,63.13
2022-12-04T10:56:34.187Z,61.87
2022-12-04T10:57:34.206Z,62.21
2022-12-04T10:58:34.166Z,60.84
2022-12-04T10:59:34.163Z,61.10
2022-12-04T11:00:34.144Z,61.29
2022-12-04T11:01:34.196Z,61.00
2022-12-04T11:02:34.273Z,60.84
2022-12-04T11:03:34.230Z,60.79
2022-12-04T11:04:34.112Z,61.49
2022-12-04T11:05:34.108Z,60.29
2022-12-04T11:06:34.098Z,61.93
2022-12-04T11:07:34.173Z,60.89
2022-12-04T11:08:34.122Z,59.93
2022-12-04T11:09:34.081Z,61.60
2022-12-04T11:10:34.076Z,60.22
2022-12-04T11:11:34.071Z,61.35
2022-12-04T11:12:34.111Z,61.33
2022-12-04T11:13:34.055Z,60.70
2022-12-04T11:14:34.049Z,60.71
2022-12-04T11:15:34.033Z,60.45
2022-12-04T11:16:34.099Z,61.30
2022-12-04T11:17:34.046Z,59.73
2022-12-04T11:18:34.015Z,59.88
2022-12-04T11:19:34.005Z,60.85
2022-12-04T11:20:34.012Z,60.23
2022-12-04T11:21:34.000Z,61.10
2022-12-04T11:22:34.015Z,61.21
2022-12-04T11:23:33.989Z,60.92
2022-12-04T11:24:33.982Z,57.17
2022-12-04T11:25:33.957Z,59.01
2022-12-04T11:26:33.947Z,59.55
2022-12-04T11:27:33.968Z,53.90
2022-12-04T11:28:41.643Z,58.86
2022-12-04T11:29:35.939Z,61.54
2022-12-04T11:30:33.953Z,53.54
2022-12-04T11:31:33.995Z,56.71
2022-12-04T11:32:34.421Z,59.42
2022-12-04T11:33:33.903Z,56.20
2022-12-04T11:34:33.899Z,58.06
2022-12-04T11:35:33.910Z,55.83
2022-12-04T11:36:33.876Z,56.25
2022-12-04T11:37:33.918Z,51.98
2022-12-04T11:38:33.874Z,59.99
2022-12-04T11:39:33.849Z,57.10
2022-12-04T11:40:33.866Z,58.47
2022-12-04T11:41:33.850Z,56.51
2022-12-04T11:42:33.840Z,58.50
2022-12-04T11:43:33.885Z,61.83
2022-12-04T11:44:33.850Z,61.73
2022-12-04T11:45:33.828Z,58.25
2022-12-04T11:46:33.849Z,59.98
2022-12-04T11:47:33.858Z,60.44
2022-12-04T11:48:33.849Z,59.68
2022-12-04T11:49:33.799Z,56.95
2022-12-04T11:50:33.787Z,57.64
2022-12-04T11:51:33.771Z,60.74
2022-12-04T11:52:33.765Z,56.99
2022-12-04T11:53:33.797Z,57.78
2022-12-04T11:54:33.757Z,60.51
2022-12-04T11:55:33.748Z,56.52
2022-12-04T11:56:33.729Z,64.79
2022-12-04T11:57:33.720Z,62.19
2022-12-04T11:58:33.756Z,59.47
2022-12-04T11:59:33.721Z,61.82
2022-12-04T12:00:33.710Z,59.66
2022-12-04T12:01:33.814Z,54.17
2022-12-04T12:02:33.859Z,58.23
2022-12-04T12:03:33.817Z,59.19
2022-12-04T12:04:33.674Z,58.16
2022-12-04T12:05:33.688Z,60.63
2022-12-04T12:06:33.694Z,58.10
2022-12-04T12:07:33.723Z,60.04
2022-12-04T12:08:33.701Z,58.61
2022-12-04T12:09:33.644Z,60.90
2022-12-04T12:10:33.633Z,61.24
2022-12-04T12:11:33.619Z,59.82
2022-12-04T12:12:33.628Z,59.32
2022-12-04T12:13:33.669Z,61.09
2022-12-04T12:14:33.612Z,60.50
2022-12-04T12:15:33.590Z,59.67
2022-12-04T12:16:33.649Z,58.82
2022-12-04T12:17:33.582Z,58.32
2022-12-04T12:18:33.639Z,58.58
2022-12-04T12:19:33.587Z,56.55
2022-12-04T12:20:33.563Z,56.31
2022-12-04T12:21:33.559Z,56.05
2022-12-04T12:22:33.552Z,57.29
2022-12-04T12:23:33.543Z,57.05
2022-12-04T12:24:33.565Z,58.91
2022-12-04T12:25:33.523Z,58.20
2022-12-04T12:26:33.532Z,59.99
2022-12-04T12:27:33.514Z,57.42
2022-12-04T12:28:33.498Z,56.87
2022-12-04T12:29:33.525Z,58.09
2022-12-04T12:30:33.485Z,62.32
2022-12-04T12:31:33.533Z,56.20
2022-12-04T12:32:33.476Z,58.77
2022-12-04T12:33:33.460Z,62.65
2022-12-04T12:34:33.475Z,59.62
2022-12-04T12:35:33.466Z,57.53
2022-12-04T12:36:33.433Z,59.29
2022-12-04T12:37:33.442Z,56.37
2022-12-04T12:38:33.433Z,60.39
2022-12-04T12:39:33.447Z,58.17
2022-12-04T12:40:33.405Z,56.34
2022-12-04T12:42:06.220Z,53.02
2022-12-04T12:42:33.389Z,59.89
2022-12-04T12:43:33.411Z,62.68
2022-12-04T12:44:33.396Z,57.16
2022-12-04T12:45:33.386Z,58.64
2022-12-04T12:46:33.407Z,61.26
2022-12-04T12:47:33.349Z,59.05
2022-12-04T12:48:33.337Z,54.04
2022-12-04T12:49:33.360Z,58.76
2022-12-04T12:50:33.313Z,60.83
2022-12-04T12:51:34.314Z,59.39
2022-12-04T12:52:33.358Z,59.52